sensor_id;sensor_type;location;lat;lon;timestamp;P1;durP1;ratioP1;P2;durP2;ratioP2
75626;SDS011;64211;49.404;11.034;2022-11-09T00:00:21;5.40;;;2.88;;
75626;SDS011;64211;49.404;11.034;2022-11-09T00:02:47;5.35;;;3.25;;
75626;SDS011;64211;49.404;11.034;2022-11-09T00:05:12;5.57;;;3.38;;
75626;SDS011;64211;49.404;11.034;2022-11-09T00:07:38;4.57;;;3.03;;
75626;SDS011;64211;49.404;11.034;2022-11-09T00:10:04;5.38;;;3.45;;
75626;SDS011;64211;49.404;11.034;2022-11-09T00:12:30;4.63;;;3.13;;
75626;SDS011;64211;49.404;11.034;2022-11-09T00:14:56;4.80;;;3.47;;
75626;SDS011;64211;49.404;11.034;2022-11-09T00:17:22;5.93;;;3.17;;
75626;SDS011;64211;49.404;11.034;2022-11-09T00:19:47;5.88;;;3.28;;
75626;SDS011;64211;49.404;11.034;2022-11-09T00:22:13;6.93;;;3.30;;
75626;SDS011;64211;49.404;11.034;2022-11-09T00:24:39;6.28;;;3.40;;
75626;SDS011;64211;49.404;11.034;2022-11-09T00:27:04;7.03;;;3.20;;
75626;SDS011;64211;49.404;11.034;2022-11-09T00:29:30;5.22;;;2.85;;
75626;SDS011;64211;49.404;11.034;2022-11-09T00:31:56;4.50;;;2.83;;
75626;SDS011;64211;49.404;11.034;2022-11-09T00:34:22;6.90;;;3.10;;
75626;SDS011;64211;49.404;11.034;2022-11-09T00:36:47;5.10;;;3.03;;
75626;SDS011;64211;49.404;11.034;2022-11-09T00:39:13;6.88;;;3.60;;
75626;SDS011;64211;49.404;11.034;2022-11-09T00:41:39;5.55;;;3.15;;
75626;SDS011;64211;49.404;11.034;2022-11-09T00:44:05;5.97;;;3.10;;
75626;SDS011;64211;49.404;11.034;2022-11-09T00:46:30;5.93;;;3.30;;
75626;SDS011;64211;49.404;11.034;2022-11-09T00:48:56;6.65;;;3.22;;
75626;SDS011;64211;49.404;11.034;2022-11-09T00:51:22;7.00;;;3.67;;
75626;SDS011;64211;49.404;11.034;2022-11-09T00:53:48;5.07;;;3.08;;
75626;SDS011;64211;49.404;11.034;2022-11-09T00:56:18;5.75;;;3.40;;
75626;SDS011;64211;49.404;11.034;2022-11-09T00:58:43;7.65;;;3.03;;
75626;SDS011;64211;49.404;11.034;2022-11-09T01:03:37;4.72;;;3.25;;
75626;SDS011;64211;49.404;11.034;2022-11-09T01:06:03;6.18;;;3.30;;
75626;SDS011;64211;49.404;11.034;2022-11-09T01:08:30;7.18;;;3.65;;
75626;SDS011;64211;49.404;11.034;2022-11-09T01:10:57;6.53;;;3.55;;
75626;SDS011;64211;49.404;11.034;2022-11-09T01:13:32;5.20;;;3.50;;
75626;SDS011;64211;49.404;11.034;2022-11-09T01:15:58;6.07;;;3.50;;
75626;SDS011;64211;49.404;11.034;2022-11-09T01:18:23;6.63;;;3.55;;
75626;SDS011;64211;49.404;11.034;2022-11-09T01:20:49;5.07;;;3.22;;
75626;SDS011;64211;49.404;11.034;2022-11-09T01:23:16;6.07;;;3.30;;
75626;SDS011;64211;49.404;11.034;2022-11-09T01:25:43;6.68;;;3.20;;
75626;SDS011;64211;49.404;11.034;2022-11-09T01:28:09;5.57;;;3.50;;
75626;SDS011;64211;49.404;11.034;2022-11-09T01:30:37;5.93;;;3.10;;
75626;SDS011;64211;49.404;11.034;2022-11-09T01:33:05;5.45;;;3.03;;
75626;SDS011;64211;49.404;11.034;2022-11-09T01:35:33;5.38;;;3.00;;
75626;SDS011;64211;49.404;11.034;2022-11-09T01:40:26;4.80;;;3.00;;
75626;SDS011;64211;49.404;11.034;2022-11-09T01:42:53;5.28;;;3.10;;
75626;SDS011;64211;49.404;11.034;2022-11-09T01:48:03;4.68;;;2.95;;
75626;SDS011;64211;49.404;11.034;2022-11-09T01:53:28;6.35;;;3.38;;
75626;SDS011;64211;49.404;11.034;2022-11-09T01:55:59;3.95;;;2.72;;
75626;SDS011;64211;49.404;11.034;2022-11-09T01:58:30;6.45;;;2.85;;
75626;SDS011;64211;49.404;11.034;2022-11-09T02:01:00;5.47;;;3.25;;
75626;SDS011;64211;49.404;11.034;2022-11-09T02:03:31;5.22;;;3.08;;
75626;SDS011;64211;49.404;11.034;2022-11-09T02:06:02;5.28;;;3.53;;
75626;SDS011;64211;49.404;11.034;2022-11-09T02:08:30;6.07;;;2.83;;
75626;SDS011;64211;49.404;11.034;2022-11-09T02:10:59;5.88;;;2.92;;
75626;SDS011;64211;49.404;11.034;2022-11-09T02:13:30;5.07;;;3.00;;
75626;SDS011;64211;49.404;11.034;2022-11-09T02:15:58;6.07;;;3.03;;
75626;SDS011;64211;49.404;11.034;2022-11-09T02:18:24;3.80;;;2.67;;
75626;SDS011;64211;49.404;11.034;2022-11-09T02:20:52;5.28;;;3.30;;
75626;SDS011;64211;49.404;11.034;2022-11-09T02:23:19;6.32;;;3.33;;
75626;SDS011;64211;49.404;11.034;2022-11-09T02:26:06;4.93;;;3.10;;
75626;SDS011;64211;49.404;11.034;2022-11-09T02:28:36;4.53;;;2.80;;
75626;SDS011;64211;49.404;11.034;2022-11-09T02:31:03;6.53;;;2.80;;
75626;SDS011;64211;49.404;11.034;2022-11-09T02:36:15;4.95;;;2.60;;
75626;SDS011;64211;49.404;11.034;2022-11-09T02:38:41;5.03;;;2.95;;
75626;SDS011;64211;49.404;11.034;2022-11-09T02:41:07;3.30;;;2.60;;
75626;SDS011;64211;49.404;11.034;2022-11-09T02:43:35;4.43;;;2.58;;
75626;SDS011;64211;49.404;11.034;2022-11-09T02:46:02;5.15;;;3.22;;
75626;SDS011;64211;49.404;11.034;2022-11-09T02:48:28;6.13;;;3.08;;
75626;SDS011;64211;49.404;11.034;2022-11-09T02:50:53;5.13;;;3.00;;
75626;SDS011;64211;49.404;11.034;2022-11-09T02:53:19;4.18;;;2.88;;
75626;SDS011;64211;49.404;11.034;2022-11-09T02:55:45;4.65;;;2.88;;
75626;SDS011;64211;49.404;11.034;2022-11-09T02:58:11;5.95;;;3.00;;
75626;SDS011;64211;49.404;11.034;2022-11-09T03:00:37;4.82;;;3.10;;
75626;SDS011;64211;49.404;11.034;2022-11-09T03:03:03;4.95;;;2.63;;
75626;SDS011;64211;49.404;11.034;2022-11-09T03:05:29;5.70;;;3.08;;
75626;SDS011;64211;49.404;11.034;2022-11-09T03:07:54;7.97;;;3.40;;
75626;SDS011;64211;49.404;11.034;2022-11-09T03:10:21;4.95;;;3.00;;
75626;SDS011;64211;49.404;11.034;2022-11-09T03:12:47;5.82;;;2.88;;
75626;SDS011;64211;49.404;11.034;2022-11-09T03:15:13;4.47;;;2.35;;
75626;SDS011;64211;49.404;11.034;2022-11-09T03:17:39;4.30;;;2.72;;
75626;SDS011;64211;49.404;11.034;2022-11-09T03:20:05;5.50;;;2.80;;
75626;SDS011;64211;49.404;11.034;2022-11-09T03:22:31;4.13;;;2.67;;
75626;SDS011;64211;49.404;11.034;2022-11-09T03:24:57;4.65;;;2.95;;
75626;SDS011;64211;49.404;11.034;2022-11-09T03:27:23;5.30;;;2.88;;
75626;SDS011;64211;49.404;11.034;2022-11-09T03:29:49;5.45;;;2.80;;
75626;SDS011;64211;49.404;11.034;2022-11-09T03:32:14;3.85;;;2.80;;
75626;SDS011;64211;49.404;11.034;2022-11-09T03:34:40;5.55;;;2.85;;
75626;SDS011;64211;49.404;11.034;2022-11-09T03:37:06;4.30;;;3.00;;
75626;SDS011;64211;49.404;11.034;2022-11-09T03:39:32;5.65;;;3.17;;
75626;SDS011;64211;49.404;11.034;2022-11-09T03:41:58;5.22;;;2.88;;
75626;SDS011;64211;49.404;11.034;2022-11-09T03:44:24;4.05;;;2.50;;
75626;SDS011;64211;49.404;11.034;2022-11-09T03:46:50;4.53;;;2.65;;
75626;SDS011;64211;49.404;11.034;2022-11-09T03:49:15;6.75;;;2.97;;
75626;SDS011;64211;49.404;11.034;2022-11-09T03:51:41;4.78;;;2.95;;
75626;SDS011;64211;49.404;11.034;2022-11-09T03:54:07;5.93;;;3.00;;
75626;SDS011;64211;49.404;11.034;2022-11-09T03:56:33;5.20;;;3.00;;
75626;SDS011;64211;49.404;11.034;2022-11-09T03:58:58;5.07;;;3.10;;
75626;SDS011;64211;49.404;11.034;2022-11-09T04:01:24;6.05;;;2.97;;
75626;SDS011;64211;49.404;11.034;2022-11-09T04:03:50;5.32;;;2.85;;
75626;SDS011;64211;49.404;11.034;2022-11-09T04:06:16;5.85;;;3.30;;
75626;SDS011;64211;49.404;11.034;2022-11-09T04:08:42;6.68;;;3.60;;
75626;SDS011;64211;49.404;11.034;2022-11-09T04:11:15;6.50;;;3.47;;
75626;SDS011;64211;49.404;11.034;2022-11-09T04:13:40;6.38;;;3.63;;
75626;SDS011;64211;49.404;11.034;2022-11-09T04:16:06;8.15;;;4.00;;
75626;SDS011;64211;49.404;11.034;2022-11-09T04:18:32;6.50;;;3.63;;
75626;SDS011;64211;49.404;11.034;2022-11-09T04:20:58;6.65;;;3.25;;
75626;SDS011;64211;49.404;11.034;2022-11-09T04:23:27;5.72;;;3.55;;
75626;SDS011;64211;49.404;11.034;2022-11-09T04:25:52;7.20;;;3.45;;
75626;SDS011;64211;49.404;11.034;2022-11-09T04:28:18;6.72;;;3.53;;
75626;SDS011;64211;49.404;11.034;2022-11-09T04:30:44;7.07;;;3.35;;
75626;SDS011;64211;49.404;11.034;2022-11-09T04:33:10;6.47;;;3.22;;
75626;SDS011;64211;49.404;11.034;2022-11-09T04:35:35;6.07;;;3.35;;
75626;SDS011;64211;49.404;11.034;2022-11-09T04:38:03;6.10;;;3.58;;
75626;SDS011;64211;49.404;11.034;2022-11-09T04:40:31;6.10;;;3.80;;
75626;SDS011;64211;49.404;11.034;2022-11-09T04:42:58;8.85;;;3.72;;
75626;SDS011;64211;49.404;11.034;2022-11-09T04:47:55;9.15;;;5.55;;
75626;SDS011;64211;49.404;11.034;2022-11-09T04:50:22;23.75;;;11.02;;
75626;SDS011;64211;49.404;11.034;2022-11-09T04:52:48;12.25;;;6.30;;
75626;SDS011;64211;49.404;11.034;2022-11-09T04:55:14;11.68;;;5.82;;
75626;SDS011;64211;49.404;11.034;2022-11-09T04:57:39;10.98;;;4.50;;
75626;SDS011;64211;49.404;11.034;2022-11-09T05:00:05;7.03;;;4.50;;
75626;SDS011;64211;49.404;11.034;2022-11-09T05:02:31;7.30;;;4.35;;
75626;SDS011;64211;49.404;11.034;2022-11-09T05:04:57;9.73;;;6.50;;
75626;SDS011;64211;49.404;11.034;2022-11-09T05:07:23;10.93;;;5.13;;
75626;SDS011;64211;49.404;11.034;2022-11-09T05:09:49;5.85;;;3.83;;
75626;SDS011;64211;49.404;11.034;2022-11-09T05:12:14;6.13;;;3.50;;
75626;SDS011;64211;49.404;11.034;2022-11-09T05:14:40;6.53;;;3.60;;
75626;SDS011;64211;49.404;11.034;2022-11-09T05:17:06;7.68;;;3.78;;
75626;SDS011;64211;49.404;11.034;2022-11-09T05:19:33;6.78;;;3.90;;
75626;SDS011;64211;49.404;11.034;2022-11-09T05:21:59;8.38;;;3.63;;
75626;SDS011;64211;49.404;11.034;2022-11-09T05:24:44;6.85;;;3.92;;
75626;SDS011;64211;49.404;11.034;2022-11-09T05:27:10;9.00;;;4.57;;
75626;SDS011;64211;49.404;11.034;2022-11-09T05:29:35;6.90;;;4.40;;
75626;SDS011;64211;49.404;11.034;2022-11-09T05:32:01;5.97;;;3.70;;
75626;SDS011;64211;49.404;11.034;2022-11-09T05:34:27;9.00;;;4.30;;
75626;SDS011;64211;49.404;11.034;2022-11-09T05:36:53;6.88;;;4.15;;
75626;SDS011;64211;49.404;11.034;2022-11-09T05:39:18;6.20;;;3.75;;
75626;SDS011;64211;49.404;11.034;2022-11-09T05:41:44;5.90;;;3.63;;
75626;SDS011;64211;49.404;11.034;2022-11-09T05:44:10;6.03;;;3.90;;
75626;SDS011;64211;49.404;11.034;2022-11-09T05:46:35;6.07;;;3.70;;
75626;SDS011;64211;49.404;11.034;2022-11-09T05:49:01;6.55;;;3.13;;
75626;SDS011;64211;49.404;11.034;2022-11-09T05:51:27;5.25;;;3.25;;
75626;SDS011;64211;49.404;11.034;2022-11-09T05:53:53;7.32;;;3.30;;
75626;SDS011;64211;49.404;11.034;2022-11-09T05:56:19;7.35;;;3.58;;
75626;SDS011;64211;49.404;11.034;2022-11-09T05:58:44;8.52;;;4.10;;
75626;SDS011;64211;49.404;11.034;2022-11-09T06:01:11;6.22;;;3.35;;
75626;SDS011;64211;49.404;11.034;2022-11-09T06:03:39;7.22;;;4.13;;
75626;SDS011;64211;49.404;11.034;2022-11-09T06:06:06;5.78;;;3.88;;
75626;SDS011;64211;49.404;11.034;2022-11-09T06:08:34;6.65;;;3.72;;
75626;SDS011;64211;49.404;11.034;2022-11-09T06:11:01;5.68;;;3.35;;
75626;SDS011;64211;49.404;11.034;2022-11-09T06:13:29;5.90;;;3.40;;
75626;SDS011;64211;49.404;11.034;2022-11-09T06:15:57;6.63;;;3.50;;
75626;SDS011;64211;49.404;11.034;2022-11-09T06:18:25;6.97;;;3.78;;
75626;SDS011;64211;49.404;11.034;2022-11-09T06:20:53;5.85;;;3.60;;
75626;SDS011;64211;49.404;11.034;2022-11-09T06:23:20;6.75;;;3.72;;
75626;SDS011;64211;49.404;11.034;2022-11-09T06:26:11;5.35;;;3.88;;
75626;SDS011;64211;49.404;11.034;2022-11-09T06:28:37;8.38;;;3.40;;
75626;SDS011;64211;49.404;11.034;2022-11-09T06:31:04;7.20;;;4.20;;
75626;SDS011;64211;49.404;11.034;2022-11-09T06:33:34;7.55;;;3.90;;
75626;SDS011;64211;49.404;11.034;2022-11-09T06:36:01;7.88;;;3.88;;
75626;SDS011;64211;49.404;11.034;2022-11-09T06:38:28;7.03;;;3.80;;
75626;SDS011;64211;49.404;11.034;2022-11-09T06:40:54;6.63;;;4.03;;
75626;SDS011;64211;49.404;11.034;2022-11-09T06:45:48;15.98;;;7.63;;
75626;SDS011;64211;49.404;11.034;2022-11-09T06:48:14;11.90;;;6.53;;
75626;SDS011;64211;49.404;11.034;2022-11-09T06:50:40;13.93;;;8.13;;
75626;SDS011;64211;49.404;11.034;2022-11-09T06:53:08;146.75;;;62.13;;
75626;SDS011;64211;49.404;11.034;2022-11-09T06:55:35;75.38;;;35.58;;
75626;SDS011;64211;49.404;11.034;2022-11-09T06:58:06;28.92;;;14.77;;
75626;SDS011;64211;49.404;11.034;2022-11-09T07:00:32;12.63;;;6.20;;
75626;SDS011;64211;49.404;11.034;2022-11-09T07:02:58;11.30;;;7.10;;
75626;SDS011;64211;49.404;11.034;2022-11-09T07:05:24;9.52;;;5.38;;
75626;SDS011;64211;49.404;11.034;2022-11-09T07:07:50;7.07;;;4.43;;
75626;SDS011;64211;49.404;11.034;2022-11-09T07:10:16;31.98;;;16.58;;
75626;SDS011;64211;49.404;11.034;2022-11-09T07:12:42;12.75;;;6.47;;
75626;SDS011;64211;49.404;11.034;2022-11-09T07:15:08;7.72;;;4.55;;
75626;SDS011;64211;49.404;11.034;2022-11-09T07:17:36;7.20;;;4.00;;
75626;SDS011;64211;49.404;11.034;2022-11-09T07:20:04;7.25;;;3.88;;
75626;SDS011;64211;49.404;11.034;2022-11-09T07:22:31;6.55;;;4.03;;
75626;SDS011;64211;49.404;11.034;2022-11-09T07:24:59;6.30;;;4.10;;
75626;SDS011;64211;49.404;11.034;2022-11-09T07:27:25;7.65;;;4.00;;
75626;SDS011;64211;49.404;11.034;2022-11-09T07:29:53;7.03;;;4.18;;
75626;SDS011;64211;49.404;11.034;2022-11-09T07:32:19;7.28;;;4.30;;
75626;SDS011;64211;49.404;11.034;2022-11-09T07:34:45;8.40;;;3.97;;
75626;SDS011;64211;49.404;11.034;2022-11-09T07:37:12;10.30;;;4.20;;
75626;SDS011;64211;49.404;11.034;2022-11-09T07:39:37;6.63;;;3.97;;
75626;SDS011;64211;49.404;11.034;2022-11-09T07:42:03;7.43;;;4.10;;
75626;SDS011;64211;49.404;11.034;2022-11-09T07:44:29;6.13;;;3.90;;
75626;SDS011;64211;49.404;11.034;2022-11-09T07:46:54;6.88;;;4.30;;
75626;SDS011;64211;49.404;11.034;2022-11-09T07:49:20;11.32;;;4.82;;
75626;SDS011;64211;49.404;11.034;2022-11-09T07:51:46;8.90;;;4.88;;
75626;SDS011;64211;49.404;11.034;2022-11-09T07:54:12;10.20;;;4.40;;
75626;SDS011;64211;49.404;11.034;2022-11-09T07:56:38;9.02;;;4.53;;
75626;SDS011;64211;49.404;11.034;2022-11-09T07:59:03;7.15;;;4.00;;
75626;SDS011;64211;49.404;11.034;2022-11-09T08:01:29;8.68;;;4.68;;
75626;SDS011;64211;49.404;11.034;2022-11-09T08:03:56;6.35;;;4.00;;
75626;SDS011;64211;49.404;11.034;2022-11-09T08:06:22;6.35;;;4.00;;
75626;SDS011;64211;49.404;11.034;2022-11-09T08:08:52;7.82;;;4.38;;
75626;SDS011;64211;49.404;11.034;2022-11-09T08:11:22;7.32;;;4.68;;
75626;SDS011;64211;49.404;11.034;2022-11-09T08:13:49;6.45;;;4.40;;
75626;SDS011;64211;49.404;11.034;2022-11-09T08:16:15;10.20;;;4.55;;
75626;SDS011;64211;49.404;11.034;2022-11-09T08:18:41;11.32;;;4.80;;
75626;SDS011;64211;49.404;11.034;2022-11-09T08:21:07;8.55;;;5.28;;
75626;SDS011;64211;49.404;11.034;2022-11-09T08:23:33;10.32;;;4.85;;
75626;SDS011;64211;49.404;11.034;2022-11-09T08:26:03;7.57;;;4.75;;
75626;SDS011;64211;49.404;11.034;2022-11-09T08:28:30;7.63;;;4.55;;
75626;SDS011;64211;49.404;11.034;2022-11-09T08:30:57;10.40;;;4.88;;
75626;SDS011;64211;49.404;11.034;2022-11-09T08:33:25;9.52;;;4.72;;
75626;SDS011;64211;49.404;11.034;2022-11-09T08:35:52;9.27;;;4.82;;
75626;SDS011;64211;49.404;11.034;2022-11-09T08:38:18;8.13;;;5.20;;
75626;SDS011;64211;49.404;11.034;2022-11-09T08:40:45;8.90;;;6.00;;
75626;SDS011;64211;49.404;11.034;2022-11-09T08:43:10;7.00;;;4.53;;
75626;SDS011;64211;49.404;11.034;2022-11-09T08:45:38;9.05;;;4.47;;
75626;SDS011;64211;49.404;11.034;2022-11-09T08:48:05;7.95;;;4.40;;
75626;SDS011;64211;49.404;11.034;2022-11-09T08:50:33;7.35;;;4.90;;
75626;SDS011;64211;49.404;11.034;2022-11-09T08:53:00;8.30;;;4.88;;
75626;SDS011;64211;49.404;11.034;2022-11-09T08:55:27;9.52;;;5.18;;
75626;SDS011;64211;49.404;11.034;2022-11-09T08:57:53;8.00;;;4.22;;
75626;SDS011;64211;49.404;11.034;2022-11-09T09:00:20;7.03;;;4.75;;
75626;SDS011;64211;49.404;11.034;2022-11-09T09:02:46;8.93;;;4.68;;
75626;SDS011;64211;49.404;11.034;2022-11-09T09:05:13;7.85;;;4.65;;
75626;SDS011;64211;49.404;11.034;2022-11-09T09:07:39;8.65;;;4.93;;
75626;SDS011;64211;49.404;11.034;2022-11-09T09:10:04;8.75;;;5.70;;
75626;SDS011;64211;49.404;11.034;2022-11-09T09:12:31;10.27;;;4.95;;
75626;SDS011;64211;49.404;11.034;2022-11-09T09:14:56;8.98;;;4.90;;
75626;SDS011;64211;49.404;11.034;2022-11-09T09:17:22;8.85;;;5.40;;
75626;SDS011;64211;49.404;11.034;2022-11-09T09:19:48;9.65;;;5.95;;
75626;SDS011;64211;49.404;11.034;2022-11-09T09:24:41;11.70;;;5.00;;
75626;SDS011;64211;49.404;11.034;2022-11-09T09:27:06;8.95;;;5.05;;
75626;SDS011;64211;49.404;11.034;2022-11-09T09:29:32;8.35;;;5.13;;
75626;SDS011;64211;49.404;11.034;2022-11-09T09:31:58;8.57;;;5.07;;
75626;SDS011;64211;49.404;11.034;2022-11-09T09:34:23;7.72;;;5.15;;
75626;SDS011;64211;49.404;11.034;2022-11-09T09:36:53;10.70;;;6.45;;
75626;SDS011;64211;49.404;11.034;2022-11-09T09:39:19;11.57;;;6.00;;
75626;SDS011;64211;49.404;11.034;2022-11-09T09:41:50;9.68;;;5.15;;
75626;SDS011;64211;49.404;11.034;2022-11-09T09:44:22;7.90;;;5.25;;
75626;SDS011;64211;49.404;11.034;2022-11-09T09:46:56;7.50;;;5.10;;
75626;SDS011;64211;49.404;11.034;2022-11-09T09:49:25;7.97;;;4.93;;
75626;SDS011;64211;49.404;11.034;2022-11-09T09:54:33;16.83;;;8.18;;
75626;SDS011;64211;49.404;11.034;2022-11-09T09:57:04;13.10;;;7.53;;
75626;SDS011;64211;49.404;11.034;2022-11-09T09:59:42;8.02;;;5.28;;
75626;SDS011;64211;49.404;11.034;2022-11-09T10:02:15;13.57;;;7.47;;
75626;SDS011;64211;49.404;11.034;2022-11-09T10:04:55;11.93;;;6.53;;
75626;SDS011;64211;49.404;11.034;2022-11-09T10:12:55;8.63;;;5.80;;
75626;SDS011;64211;49.404;11.034;2022-11-09T10:15:43;10.93;;;5.95;;
75626;SDS011;64211;49.404;11.034;2022-11-09T10:20:59;10.13;;;6.70;;
75626;SDS011;64211;49.404;11.034;2022-11-09T10:23:36;12.02;;;5.85;;
75626;SDS011;64211;49.404;11.034;2022-11-09T10:26:13;9.13;;;6.13;;
75626;SDS011;64211;49.404;11.034;2022-11-09T10:28:44;13.35;;;6.53;;
75626;SDS011;64211;49.404;11.034;2022-11-09T10:31:39;12.80;;;6.82;;
75626;SDS011;64211;49.404;11.034;2022-11-09T10:34:11;12.60;;;6.20;;
75626;SDS011;64211;49.404;11.034;2022-11-09T10:36:55;11.10;;;6.53;;
75626;SDS011;64211;49.404;11.034;2022-11-09T10:39:41;12.02;;;6.68;;
75626;SDS011;64211;49.404;11.034;2022-11-09T10:42:12;12.27;;;6.75;;
75626;SDS011;64211;49.404;11.034;2022-11-09T10:44:37;12.55;;;6.10;;
75626;SDS011;64211;49.404;11.034;2022-11-09T10:47:08;12.27;;;6.15;;
75626;SDS011;64211;49.404;11.034;2022-11-09T10:49:36;8.35;;;5.68;;
75626;SDS011;64211;49.404;11.034;2022-11-09T10:52:03;15.18;;;8.75;;
75626;SDS011;64211;49.404;11.034;2022-11-09T10:54:34;35.90;;;23.20;;
75626;SDS011;64211;49.404;11.034;2022-11-09T11:04:49;13.93;;;8.27;;
75626;SDS011;64211;49.404;11.034;2022-11-09T11:07:19;19.60;;;10.65;;
75626;SDS011;64211;49.404;11.034;2022-11-09T11:09:47;18.67;;;8.80;;
75626;SDS011;64211;49.404;11.034;2022-11-09T11:12:13;16.67;;;8.63;;
75626;SDS011;64211;49.404;11.034;2022-11-09T11:14:41;12.23;;;6.90;;
75626;SDS011;64211;49.404;11.034;2022-11-09T11:19:46;11.02;;;6.38;;
75626;SDS011;64211;49.404;11.034;2022-11-09T11:24:43;13.73;;;8.57;;
75626;SDS011;64211;49.404;11.034;2022-11-09T11:27:20;21.35;;;11.02;;
75626;SDS011;64211;49.404;11.034;2022-11-09T11:33:11;8.65;;;6.00;;
75626;SDS011;64211;49.404;11.034;2022-11-09T11:35:40;8.85;;;5.80;;
75626;SDS011;64211;49.404;11.034;2022-11-09T11:38:20;8.80;;;5.00;;
75626;SDS011;64211;49.404;11.034;2022-11-09T11:41:13;13.73;;;7.03;;
75626;SDS011;64211;49.404;11.034;2022-11-09T11:44:02;10.38;;;6.35;;
75626;SDS011;64211;49.404;11.034;2022-11-09T11:46:44;7.68;;;5.50;;
75626;SDS011;64211;49.404;11.034;2022-11-09T11:49:44;8.68;;;5.40;;
75626;SDS011;64211;49.404;11.034;2022-11-09T11:55:25;10.10;;;5.47;;
75626;SDS011;64211;49.404;11.034;2022-11-09T12:01:11;7.40;;;4.70;;
75626;SDS011;64211;49.404;11.034;2022-11-09T12:04:20;7.57;;;4.65;;
75626;SDS011;64211;49.404;11.034;2022-11-09T12:07:07;7.68;;;5.30;;
75626;SDS011;64211;49.404;11.034;2022-11-09T12:09:52;8.48;;;4.93;;
75626;SDS011;64211;49.404;11.034;2022-11-09T12:18:27;6.93;;;4.55;;
75626;SDS011;64211;49.404;11.034;2022-11-09T12:34:40;6.90;;;4.70;;
75626;SDS011;64211;49.404;11.034;2022-11-09T12:37:24;6.20;;;4.00;;
75626;SDS011;64211;49.404;11.034;2022-11-09T12:39:54;6.93;;;3.92;;
75626;SDS011;64211;49.404;11.034;2022-11-09T12:47:39;5.53;;;3.53;;
75626;SDS011;64211;49.404;11.034;2022-11-09T12:50:15;8.65;;;4.47;;
75626;SDS011;64211;49.404;11.034;2022-11-09T12:52:44;6.60;;;4.10;;
75626;SDS011;64211;49.404;11.034;2022-11-09T12:55:15;8.25;;;4.38;;
75626;SDS011;64211;49.404;11.034;2022-11-09T12:57:45;6.97;;;4.35;;
75626;SDS011;64211;49.404;11.034;2022-11-09T13:02:58;19.05;;;11.63;;
75626;SDS011;64211;49.404;11.034;2022-11-09T13:07:54;7.32;;;5.10;;
75626;SDS011;64211;49.404;11.034;2022-11-09T13:10:31;6.03;;;4.43;;
75626;SDS011;64211;49.404;11.034;2022-11-09T13:15:37;6.82;;;4.82;;
75626;SDS011;64211;49.404;11.034;2022-11-09T13:18:16;9.75;;;5.30;;
75626;SDS011;64211;49.404;11.034;2022-11-09T13:20:48;10.98;;;6.68;;
75626;SDS011;64211;49.404;11.034;2022-11-09T13:23:27;8.82;;;5.22;;
75626;SDS011;64211;49.404;11.034;2022-11-09T13:29:08;10.98;;;6.80;;
75626;SDS011;64211;49.404;11.034;2022-11-09T13:43:02;15.07;;;9.80;;
75626;SDS011;64211;49.404;11.034;2022-11-09T13:50:54;19.25;;;11.05;;
75626;SDS011;64211;49.404;11.034;2022-11-09T13:53:30;14.75;;;8.77;;
75626;SDS011;64211;49.404;11.034;2022-11-09T13:59:55;7.15;;;4.90;;
75626;SDS011;64211;49.404;11.034;2022-11-09T14:02:01;9.90;;;5.97;;
75626;SDS011;64211;49.404;11.034;2022-11-09T14:04:29;7.68;;;5.40;;
75626;SDS011;64211;49.404;11.034;2022-11-09T14:07:00;7.35;;;4.57;;
75626;SDS011;64211;49.404;11.034;2022-11-09T14:12:14;9.05;;;5.28;;
75626;SDS011;64211;49.404;11.034;2022-11-09T14:15:02;7.93;;;5.22;;
75626;SDS011;64211;49.404;11.034;2022-11-09T14:17:40;8.40;;;4.85;;
75626;SDS011;64211;49.404;11.034;2022-11-09T14:22:50;8.05;;;5.30;;
75626;SDS011;64211;49.404;11.034;2022-11-09T14:25:17;8.88;;;5.78;;
75626;SDS011;64211;49.404;11.034;2022-11-09T14:27:49;8.18;;;5.35;;
75626;SDS011;64211;49.404;11.034;2022-11-09T14:30:23;8.52;;;5.43;;
75626;SDS011;64211;49.404;11.034;2022-11-09T14:32:52;9.50;;;5.47;;
75626;SDS011;64211;49.404;11.034;2022-11-09T14:40:30;10.80;;;6.25;;
75626;SDS011;64211;49.404;11.034;2022-11-09T14:42:59;10.45;;;5.72;;
75626;SDS011;64211;49.404;11.034;2022-11-09T14:45:30;9.15;;;5.78;;
75626;SDS011;64211;49.404;11.034;2022-11-09T14:47:56;9.50;;;6.20;;
75626;SDS011;64211;49.404;11.034;2022-11-09T14:50:28;12.70;;;7.10;;
75626;SDS011;64211;49.404;11.034;2022-11-09T14:52:57;13.05;;;8.07;;
75626;SDS011;64211;49.404;11.034;2022-11-09T14:55:25;9.48;;;5.78;;
75626;SDS011;64211;49.404;11.034;2022-11-09T14:57:52;10.95;;;5.97;;
75626;SDS011;64211;49.404;11.034;2022-11-09T15:00:40;10.75;;;6.53;;
75626;SDS011;64211;49.404;11.034;2022-11-09T15:03:27;8.77;;;6.07;;
75626;SDS011;64211;49.404;11.034;2022-11-09T15:06:04;10.32;;;6.05;;
75626;SDS011;64211;49.404;11.034;2022-11-09T15:08:36;10.18;;;6.03;;
75626;SDS011;64211;49.404;11.034;2022-11-09T15:11:09;9.82;;;6.05;;
75626;SDS011;64211;49.404;11.034;2022-11-09T15:13:36;11.55;;;6.70;;
75626;SDS011;64211;49.404;11.034;2022-11-09T15:16:04;10.43;;;6.70;;
75626;SDS011;64211;49.404;11.034;2022-11-09T15:18:32;13.10;;;8.38;;
75626;SDS011;64211;49.404;11.034;2022-11-09T15:21:13;9.93;;;6.60;;
75626;SDS011;64211;49.404;11.034;2022-11-09T15:26:36;11.63;;;6.53;;
75626;SDS011;64211;49.404;11.034;2022-11-09T15:31:58;10.93;;;6.15;;
75626;SDS011;64211;49.404;11.034;2022-11-09T15:39:57;13.35;;;7.88;;
75626;SDS011;64211;49.404;11.034;2022-11-09T15:42:24;17.25;;;8.90;;
75626;SDS011;64211;49.404;11.034;2022-11-09T15:44:54;12.00;;;7.72;;
75626;SDS011;64211;49.404;11.034;2022-11-09T15:47:32;12.40;;;7.78;;
75626;SDS011;64211;49.404;11.034;2022-11-09T15:50:01;16.85;;;9.77;;
75626;SDS011;64211;49.404;11.034;2022-11-09T15:52:47;15.18;;;9.90;;
75626;SDS011;64211;49.404;11.034;2022-11-09T15:55:14;17.75;;;11.10;;
75626;SDS011;64211;49.404;11.034;2022-11-09T15:57:43;17.92;;;11.07;;
75626;SDS011;64211;49.404;11.034;2022-11-09T16:00:12;18.58;;;11.68;;
75626;SDS011;64211;49.404;11.034;2022-11-09T16:02:45;18.05;;;10.82;;
75626;SDS011;64211;49.404;11.034;2022-11-09T16:05:11;18.42;;;11.30;;
75626;SDS011;64211;49.404;11.034;2022-11-09T16:07:45;19.25;;;12.27;;
75626;SDS011;64211;49.404;11.034;2022-11-09T16:10:16;24.38;;;14.75;;
75626;SDS011;64211;49.404;11.034;2022-11-09T16:12:45;18.95;;;11.35;;
75626;SDS011;64211;49.404;11.034;2022-11-09T16:15:12;20.45;;;12.48;;
75626;SDS011;64211;49.404;11.034;2022-11-09T16:17:38;16.52;;;10.40;;
75626;SDS011;64211;49.404;11.034;2022-11-09T16:20:03;18.65;;;10.63;;
75626;SDS011;64211;49.404;11.034;2022-11-09T16:22:30;18.25;;;11.70;;
75626;SDS011;64211;49.404;11.034;2022-11-09T16:24:59;27.35;;;15.32;;
75626;SDS011;64211;49.404;11.034;2022-11-09T16:27:26;27.17;;;15.77;;
75626;SDS011;64211;49.404;11.034;2022-11-09T16:30:12;23.42;;;15.23;;
75626;SDS011;64211;49.404;11.034;2022-11-09T16:32:38;24.25;;;15.50;;
75626;SDS011;64211;49.404;11.034;2022-11-09T16:35:04;21.70;;;13.63;;
75626;SDS011;64211;49.404;11.034;2022-11-09T16:37:50;26.20;;;13.05;;
75626;SDS011;64211;49.404;11.034;2022-11-09T16:40:19;22.63;;;12.50;;
75626;SDS011;64211;49.404;11.034;2022-11-09T16:42:45;29.73;;;14.38;;
75626;SDS011;64211;49.404;11.034;2022-11-09T16:45:12;27.20;;;14.73;;
75626;SDS011;64211;49.404;11.034;2022-11-09T16:47:42;23.73;;;12.65;;
75626;SDS011;64211;49.404;11.034;2022-11-09T16:50:10;21.17;;;12.15;;